sensor_id;sensor_type;location;lat;lon;timestamp;temperature;humidity
16172;DHT22;8192;53.596;10.166;2022-07-23T00:00:28;15.50;99.90
16172;DHT22;8192;53.596;10.166;2022-07-23T00:02:55;15.50;99.90
16172;DHT22;8192;53.596;10.166;2022-07-23T00:05:22;15.50;99.90
16172;DHT22;8192;53.596;10.166;2022-07-23T00:07:48;15.40;99.90
16172;DHT22;8192;53.596;10.166;2022-07-23T00:10:16;15.40;99.90
16172;DHT22;8192;53.596;10.166;2022-07-23T00:12:43;15.50;99.90
16172;DHT22;8192;53.596;10.166;2022-07-23T00:15:10;15.50;99.90
16172;DHT22;8192;53.596;10.166;2022-07-23T00:17:37;15.50;99.90
16172;DHT22;8192;53.596;10.166;2022-07-23T00:20:04;15.50;99.90
16172;DHT22;8192;53.596;10.166;2022-07-23T00:22:32;15.50;99.90
16172;DHT22;8192;53.596;10.166;2022-07-23T00:24:59;15.50;99.90
16172;DHT22;8192;53.596;10.166;2022-07-23T00:27:27;15.50;99.90
16172;DHT22;8192;53.596;10.166;2022-07-23T00:29:54;15.50;99.90
16172;DHT22;8192;53.596;10.166;2022-07-23T00:32:20;15.50;99.90
16172;DHT22;8192;53.596;10.166;2022-07-23T00:34:47;15.50;99.90
16172;DHT22;8192;53.596;10.166;2022-07-23T00:37:14;15.50;99.90
16172;DHT22;8192;53.596;10.166;2022-07-23T00:39:42;15.40;99.90
16172;DHT22;8192;53.596;10.166;2022-07-23T00:42:09;15.40;99.90
16172;DHT22;8192;53.596;10.166;2022-07-23T00:44:37;15.40;99.90
16172;DHT22;8192;53.596;10.166;2022-07-23T00:47:04;15.40;99.90
16172;DHT22;8192;53.596;10.166;2022-07-23T00:49:31;15.40;99.90
16172;DHT22;8192;53.596;10.166;2022-07-23T00:51:58;15.30;99.90
16172;DHT22;8192;53.596;10.166;2022-07-23T00:54:27;15.30;99.90
16172;DHT22;8192;53.596;10.166;2022-07-23T00:56:54;15.30;99.90
16172;DHT22;8192;53.596;10.166;2022-07-23T00:59:20;15.30;99.90
16172;DHT22;8192;53.596;10.166;2022-07-23T01:01:49;15.30;99.90
16172;DHT22;8192;53.596;10.166;2022-07-23T01:04:16;15.30;99.90
16172;DHT22;8192;53.596;10.166;2022-07-23T01:06:43;15.20;99.90
16172;DHT22;8192;53.596;10.166;2022-07-23T01:09:10;15.20;99.90
16172;DHT22;8192;53.596;10.166;2022-07-23T01:11:37;15.20;99.90
16172;DHT22;8192;53.596;10.166;2022-07-23T01:14:07;15.20;99.90
16172;DHT22;8192;53.596;10.166;2022-07-23T01:16:34;15.20;99.90
16172;DHT22;8192;53.596;10.166;2022-07-23T01:19:02;15.20;99.90
16172;DHT22;8192;53.596;10.166;2022-07-23T01:21:32;15.10;99.90
16172;DHT22;8192;53.596;10.166;2022-07-23T01:24:00;15.10;99.90
16172;DHT22;8192;53.596;10.166;2022-07-23T01:26:27;15.00;99.90
16172;DHT22;8192;53.596;10.166;2022-07-23T01:29:04;15.00;99.90
16172;DHT22;8192;53.596;10.166;2022-07-23T01:31:31;15.00;99.90
16172;DHT22;8192;53.596;10.166;2022-07-23T01:33:58;14.90;99.90
16172;DHT22;8192;53.596;10.166;2022-07-23T01:36:25;14.80;99.90
16172;DHT22;8192;53.596;10.166;2022-07-23T01:38:52;14.80;99.90
16172;DHT22;8192;53.596;10.166;2022-07-23T01:41:20;14.70;99.90
16172;DHT22;8192;53.596;10.166;2022-07-23T01:43:46;14.50;99.90
16172;DHT22;8192;53.596;10.166;2022-07-23T01:46:13;14.60;99.90
16172;DHT22;8192;53.596;10.166;2022-07-23T01:48:40;14.60;99.90
16172;DHT22;8192;53.596;10.166;2022-07-23T01:51:07;14.60;99.90
16172;DHT22;8192;53.596;10.166;2022-07-23T01:53:34;14.60;99.90
16172;DHT22;8192;53.596;10.166;2022-07-23T01:56:01;14.60;99.90
16172;DHT22;8192;53.596;10.166;2022-07-23T01:58:29;14.70;99.90
16172;DHT22;8192;53.596;10.166;2022-07-23T02:00:56;14.70;99.90
16172;DHT22;8192;53.596;10.166;2022-07-23T02:03:23;14.70;99.90
16172;DHT22;8192;53.596;10.166;2022-07-23T02:05:50;14.80;99.90
16172;DHT22;8192;53.596;10.166;2022-07-23T02:08:17;14.80;99.90
16172;DHT22;8192;53.596;10.166;2022-07-23T02:10:44;14.90;99.90
16172;DHT22;8192;53.596;10.166;2022-07-23T02:13:11;14.90;99.90
16172;DHT22;8192;53.596;10.166;2022-07-23T02:15:39;14.90;99.90
16172;DHT22;8192;53.596;10.166;2022-07-23T02:18:06;15.00;99.90
16172;DHT22;8192;53.596;10.166;2022-07-23T02:20:33;15.00;99.90
16172;DHT22;8192;53.596;10.166;2022-07-23T02:23:00;15.00;99.90
16172;DHT22;8192;53.596;10.166;2022-07-23T02:25:26;15.00;99.90
16172;DHT22;8192;53.596;10.166;2022-07-23T02:27:53;15.00;99.90
16172;DHT22;8192;53.596;10.166;2022-07-23T02:30:20;14.90;99.90
16172;DHT22;8192;53.596;10.166;2022-07-23T02:32:48;15.00;99.90
16172;DHT22;8192;53.596;10.166;2022-07-23T02:35:15;14.90;99.90
16172;DHT22;8192;53.596;10.166;2022-07-23T02:37:42;14.90;99.90
16172;DHT22;8192;53.596;10.166;2022-07-23T02:40:10;14.90;99.90
16172;DHT22;8192;53.596;10.166;2022-07-23T02:42:37;14.80;99.90
16172;DHT22;8192;53.596;10.166;2022-07-23T02:45:04;14.70;99.90
16172;DHT22;8192;53.596;10.166;2022-07-23T02:47:31;14.60;99.90
16172;DHT22;8192;53.596;10.166;2022-07-23T02:49:59;14.60;99.90
16172;DHT22;8192;53.596;10.166;2022-07-23T02:52:26;14.50;99.90
16172;DHT22;8192;53.596;10.166;2022-07-23T02:54:53;14.40;99.90
16172;DHT22;8192;53.596;10.166;2022-07-23T02:57:20;14.30;99.90
16172;DHT22;8192;53.596;10.166;2022-07-23T02:59:46;14.20;99.90
16172;DHT22;8192;53.596;10.166;2022-07-23T03:02:13;14.20;99.90
16172;DHT22;8192;53.596;10.166;2022-07-23T03:04:40;14.10;99.90
16172;DHT22;8192;53.596;10.166;2022-07-23T03:07:09;14.10;99.90
16172;DHT22;8192;53.596;10.166;2022-07-23T03:09:35;13.90;99.90
16172;DHT22;8192;53.596;10.166;2022-07-23T03:12:02;13.80;99.90
16172;DHT22;8192;53.596;10.166;2022-07-23T03:14:29;13.80;99.90
16172;DHT22;8192;53.596;10.166;2022-07-23T03:16:56;13.70;99.90
16172;DHT22;8192;53.596;10.166;2022-07-23T03:19:25;13.60;99.90
16172;DHT22;8192;53.596;10.166;2022-07-23T03:21:51;13.50;99.90
16172;DHT22;8192;53.596;10.166;2022-07-23T03:24:22;13.40;99.90
16172;DHT22;8192;53.596;10.166;2022-07-23T03:27:09;13.40;99.90
16172;DHT22;8192;53.596;10.166;2022-07-23T03:29:36;13.50;99.90
16172;DHT22;8192;53.596;10.166;2022-07-23T03:32:04;13.60;99.90
16172;DHT22;8192;53.596;10.166;2022-07-23T03:34:31;13.80;99.90
16172;DHT22;8192;53.596;10.166;2022-07-23T03:36:57;13.90;99.90
16172;DHT22;8192;53.596;10.166;2022-07-23T03:39:26;13.90;99.90
16172;DHT22;8192;53.596;10.166;2022-07-23T03:41:52;14.00;99.90
16172;DHT22;8192;53.596;10.166;2022-07-23T03:44:19;14.10;99.90
16172;DHT22;8192;53.596;10.166;2022-07-23T03:46:46;14.20;99.90
16172;DHT22;8192;53.596;10.166;2022-07-23T03:49:12;14.30;99.90
16172;DHT22;8192;53.596;10.166;2022-07-23T03:51:39;14.30;99.90
16172;DHT22;8192;53.596;10.166;2022-07-23T03:54:06;14.40;99.90
16172;DHT22;8192;53.596;10.166;2022-07-23T03:56:34;14.40;99.90
16172;DHT22;8192;53.596;10.166;2022-07-23T03:59:01;14.30;99.90
16172;DHT22;8192;53.596;10.166;2022-07-23T04:01:28;14.30;99.90
16172;DHT22;8192;53.596;10.166;2022-07-23T04:03:55;14.20;99.90
16172;DHT22;8192;53.596;10.166;2022-07-23T04:06:21;14.10;99.90
16172;DHT22;8192;53.596;10.166;2022-07-23T04:08:48;14.00;99.90
16172;DHT22;8192;53.596;10.166;2022-07-23T04:11:15;14.00;99.90
16172;DHT22;8192;53.596;10.166;2022-07-23T04:13:43;14.00;99.90
16172;DHT22;8192;53.596;10.166;2022-07-23T04:16:10;14.00;99.90
16172;DHT22;8192;53.596;10.166;2022-07-23T04:18:36;14.20;99.90
16172;DHT22;8192;53.596;10.166;2022-07-23T04:21:03;14.40;99.90
16172;DHT22;8192;53.596;10.166;2022-07-23T04:23:30;14.60;99.90
16172;DHT22;8192;53.596;10.166;2022-07-23T04:25:57;14.80;99.90
16172;DHT22;8192;53.596;10.166;2022-07-23T04:28:24;15.10;99.90
16172;DHT22;8192;53.596;10.166;2022-07-23T04:30:58;15.40;99.90
16172;DHT22;8192;53.596;10.166;2022-07-23T04:33:26;15.70;99.90
16172;DHT22;8192;53.596;10.166;2022-07-23T04:35:53;15.80;99.90
16172;DHT22;8192;53.596;10.166;2022-07-23T04:38:20;15.80;99.90
16172;DHT22;8192;53.596;10.166;2022-07-23T04:40:47;15.70;99.90
16172;DHT22;8192;53.596;10.166;2022-07-23T04:43:13;15.60;99.90
16172;DHT22;8192;53.596;10.166;2022-07-23T04:45:40;15.50;99.90
16172;DHT22;8192;53.596;10.166;2022-07-23T04:48:09;15.40;99.90
16172;DHT22;8192;53.596;10.166;2022-07-23T04:50:36;15.30;99.90
16172;DHT22;8192;53.596;10.166;2022-07-23T04:53:03;15.20;99.90
16172;DHT22;8192;53.596;10.166;2022-07-23T04:55:29;15.20;99.90
16172;DHT22;8192;53.596;10.166;2022-07-23T04:57:56;15.20;99.90
16172;DHT22;8192;53.596;10.166;2022-07-23T05:00:23;15.10;99.90
16172;DHT22;8192;53.596;10.166;2022-07-23T05:02:49;15.10;99.90
16172;DHT22;8192;53.596;10.166;2022-07-23T05:05:17;15.00;99.90
16172;DHT22;8192;53.596;10.166;2022-07-23T05:07:44;15.00;99.90
16172;DHT22;8192;53.596;10.166;2022-07-23T05:10:11;15.10;99.90
16172;DHT22;8192;53.596;10.166;2022-07-23T05:12:41;15.00;99.90
16172;DHT22;8192;53.596;10.166;2022-07-23T05:15:08;15.00;99.90
16172;DHT22;8192;53.596;10.166;2022-07-23T05:17:34;14.90;99.90
16172;DHT22;8192;53.596;10.166;2022-07-23T05:20:01;14.90;99.90
16172;DHT22;8192;53.596;10.166;2022-07-23T05:22:30;14.90;99.90
16172;DHT22;8192;53.596;10.166;2022-07-23T05:24:56;14.90;99.90
16172;DHT22;8192;53.596;10.166;2022-07-23T05:30:00;14.90;99.90
16172;DHT22;8192;53.596;10.166;2022-07-23T05:32:27;14.90;99.90
16172;DHT22;8192;53.596;10.166;2022-07-23T05:34:54;15.00;99.90
16172;DHT22;8192;53.596;10.166;2022-07-23T05:37:20;15.00;99.90
16172;DHT22;8192;53.596;10.166;2022-07-23T05:39:49;15.00;99.90
16172;DHT22;8192;53.596;10.166;2022-07-23T05:42:15;15.00;99.90
16172;DHT22;8192;53.596;10.166;2022-07-23T05:44:43;15.00;99.90
16172;DHT22;8192;53.596;10.166;2022-07-23T05:47:10;15.10;99.90
16172;DHT22;8192;53.596;10.166;2022-07-23T05:49:36;15.20;99.90
16172;DHT22;8192;53.596;10.166;2022-07-23T05:52:03;15.30;99.90
16172;DHT22;8192;53.596;10.166;2022-07-23T05:54:30;15.50;99.90
16172;DHT22;8192;53.596;10.166;2022-07-23T05:56:59;15.70;99.90
16172;DHT22;8192;53.596;10.166;2022-07-23T05:59:26;15.90;99.90
16172;DHT22;8192;53.596;10.166;2022-07-23T06:01:55;16.10;99.90
16172;DHT22;8192;53.596;10.166;2022-07-23T06:04:21;16.20;99.90
16172;DHT22;8192;53.596;10.166;2022-07-23T06:06:48;16.30;99.90
16172;DHT22;8192;53.596;10.166;2022-07-23T06:09:15;16.50;99.90
16172;DHT22;8192;53.596;10.166;2022-07-23T06:11:41;16.50;99.90
16172;DHT22;8192;53.596;10.166;2022-07-23T06:14:10;16.50;99.90
16172;DHT22;8192;53.596;10.166;2022-07-23T06:16:39;16.50;99.90
16172;DHT22;8192;53.596;10.166;2022-07-23T06:19:06;16.50;99.90
16172;DHT22;8192;53.596;10.166;2022-07-23T06:21:33;16.60;99.90
16172;DHT22;8192;53.596;10.166;2022-07-23T06:24:00;16.90;99.90
16172;DHT22;8192;53.596;10.166;2022-07-23T06:26:27;16.90;99.90
16172;DHT22;8192;53.596;10.166;2022-07-23T06:28:53;17.10;99.90
16172;DHT22;8192;53.596;10.166;2022-07-23T06:31:22;17.20;99.90
16172;DHT22;8192;53.596;10.166;2022-07-23T06:33:49;17.30;99.90
16172;DHT22;8192;53.596;10.166;2022-07-23T06:36:16;17.30;99.90
16172;DHT22;8192;53.596;10.166;2022-07-23T06:38:43;17.30;99.90
16172;DHT22;8192;53.596;10.166;2022-07-23T06:41:14;17.40;99.90
16172;DHT22;8192;53.596;10.166;2022-07-23T06:43:41;17.40;99.90
16172;DHT22;8192;53.596;10.166;2022-07-23T06:46:08;17.50;99.90
16172;DHT22;8192;53.596;10.166;2022-07-23T06:48:39;17.60;99.90
16172;DHT22;8192;53.596;10.166;2022-07-23T06:51:06;17.70;99.90
16172;DHT22;8192;53.596;10.166;2022-07-23T06:53:33;17.90;99.90
16172;DHT22;8192;53.596;10.166;2022-07-23T06:56:00;18.20;99.90
16172;DHT22;8192;53.596;10.166;2022-07-23T06:58:26;18.20;99.90
16172;DHT22;8192;53.596;10.166;2022-07-23T07:00:53;18.30;99.90
16172;DHT22;8192;53.596;10.166;2022-07-23T07:03:22;18.20;99.90
16172;DHT22;8192;53.596;10.166;2022-07-23T07:05:50;18.10;99.90
16172;DHT22;8192;53.596;10.166;2022-07-23T07:08:18;18.00;99.90
16172;DHT22;8192;53.596;10.166;2022-07-23T07:10:45;18.00;99.90
16172;DHT22;8192;53.596;10.166;2022-07-23T07:13:13;17.90;99.90
16172;DHT22;8192;53.596;10.166;2022-07-23T07:15:40;17.70;99.90
16172;DHT22;8192;53.596;10.166;2022-07-23T07:18:07;17.90;99.90
16172;DHT22;8192;53.596;10.166;2022-07-23T07:20:34;17.90;99.90
16172;DHT22;8192;53.596;10.166;2022-07-23T07:23:02;17.70;99.90
16172;DHT22;8192;53.596;10.166;2022-07-23T07:25:29;17.60;99.90
16172;DHT22;8192;53.596;10.166;2022-07-23T07:27:56;17.50;99.90
16172;DHT22;8192;53.596;10.166;2022-07-23T07:30:23;17.70;99.90
16172;DHT22;8192;53.596;10.166;2022-07-23T07:32:50;18.00;99.90
16172;DHT22;8192;53.596;10.166;2022-07-23T07:37:52;18.30;99.90
16172;DHT22;8192;53.596;10.166;2022-07-23T07:40:20;18.00;99.90
16172;DHT22;8192;53.596;10.166;2022-07-23T07:42:47;17.70;99.90
16172;DHT22;8192;53.596;10.166;2022-07-23T07:45:14;17.10;99.90
16172;DHT22;8192;53.596;10.166;2022-07-23T07:47:41;16.50;99.90
16172;DHT22;8192;53.596;10.166;2022-07-23T07:50:08;16.10;99.90
16172;DHT22;8192;53.596;10.166;2022-07-23T07:52:35;15.90;99.90
16172;DHT22;8192;53.596;10.166;2022-07-23T07:55:02;15.70;99.90
16172;DHT22;8192;53.596;10.166;2022-07-23T07:57:30;15.50;99.90
16172;DHT22;8192;53.596;10.166;2022-07-23T07:59:57;16.10;99.90
16172;DHT22;8192;53.596;10.166;2022-07-23T08:02:24;17.90;99.90
16172;DHT22;8192;53.596;10.166;2022-07-23T08:04:51;19.10;99.90
16172;DHT22;8192;53.596;10.166;2022-07-23T08:07:20;19.50;99.90
16172;DHT22;8192;53.596;10.166;2022-07-23T08:09:47;19.80;99.90
16172;DHT22;8192;53.596;10.166;2022-07-23T08:12:13;20.20;99.90
16172;DHT22;8192;53.596;10.166;2022-07-23T08:14:43;19.70;99.90
16172;DHT22;8192;53.596;10.166;2022-07-23T08:17:10;20.10;99.90
16172;DHT22;8192;53.596;10.166;2022-07-23T08:19:36;20.60;99.90
16172;DHT22;8192;53.596;10.166;2022-07-23T08:22:03;20.50;99.90
16172;DHT22;8192;53.596;10.166;2022-07-23T08:24:30;20.60;99.90
16172;DHT22;8192;53.596;10.166;2022-07-23T08:26:57;21.50;99.90
16172;DHT22;8192;53.596;10.166;2022-07-23T08:29:24;21.90;99.90
16172;DHT22;8192;53.596;10.166;2022-07-23T08:31:54;21.20;99.90
16172;DHT22;8192;53.596;10.166;2022-07-23T08:34:21;20.10;99.90
16172;DHT22;8192;53.596;10.166;2022-07-23T08:36:48;18.40;99.90
16172;DHT22;8192;53.596;10.166;2022-07-23T08:39:15;17.70;99.90
16172;DHT22;8192;53.596;10.166;2022-07-23T08:41:42;17.10;99.90
16172;DHT22;8192;53.596;10.166;2022-07-23T08:44:08;16.90;99.90
16172;DHT22;8192;53.596;10.166;2022-07-23T08:46:35;16.70;99.90
16172;DHT22;8192;53.596;10.166;2022-07-23T08:49:04;17.00;99.90
16172;DHT22;8192;53.596;10.166;2022-07-23T08:51:31;17.40;99.90
16172;DHT22;8192;53.596;10.166;2022-07-23T08:53:58;17.60;99.90
16172;DHT22;8192;53.596;10.166;2022-07-23T08:56:25;18.30;99.90
16172;DHT22;8192;53.596;10.166;2022-07-23T08:58:53;18.30;99.90
16172;DHT22;8192;53.596;10.166;2022-07-23T09:01:20;18.70;99.90
16172;DHT22;8192;53.596;10.166;2022-07-23T09:03:56;18.90;99.90
16172;DHT22;8192;53.596;10.166;2022-07-23T09:06:25;18.80;99.90
16172;DHT22;8192;53.596;10.166;2022-07-23T09:08:52;18.90;99.90
16172;DHT22;8192;53.596;10.166;2022-07-23T09:11:19;19.50;99.90
16172;DHT22;8192;53.596;10.166;2022-07-23T09:13:46;19.60;99.90
16172;DHT22;8192;53.596;10.166;2022-07-23T09:16:14;19.80;99.90
16172;DHT22;8192;53.596;10.166;2022-07-23T09:18:42;19.90;99.90
16172;DHT22;8192;53.596;10.166;2022-07-23T09:21:14;20.30;99.90
16172;DHT22;8192;53.596;10.166;2022-07-23T09:23:44;19.90;99.90
16172;DHT22;8192;53.596;10.166;2022-07-23T09:26:18;20.10;99.90
16172;DHT22;8192;53.596;10.166;2022-07-23T09:28:55;20.40;99.90
16172;DHT22;8192;53.596;10.166;2022-07-23T09:31:22;20.60;99.90
16172;DHT22;8192;53.596;10.166;2022-07-23T09:33:49;20.70;99.90
16172;DHT22;8192;53.596;10.166;2022-07-23T09:39:06;20.40;98.20
16172;DHT22;8192;53.596;10.166;2022-07-23T09:41:37;20.50;97.60
16172;DHT22;8192;53.596;10.166;2022-07-23T09:44:08;20.70;95.80
16172;DHT22;8192;53.596;10.166;2022-07-23T09:46:36;20.70;95.60
16172;DHT22;8192;53.596;10.166;2022-07-23T09:49:10;20.60;94.30
16172;DHT22;8192;53.596;10.166;2022-07-23T09:51:42;20.20;93.10
16172;DHT22;8192;53.596;10.166;2022-07-23T09:54:19;19.90;95.40
16172;DHT22;8192;53.596;10.166;2022-07-23T09:56:46;20.10;96.00
16172;DHT22;8192;53.596;10.166;2022-07-23T09:59:13;20.40;96.00
16172;DHT22;8192;53.596;10.166;2022-07-23T10:01:42;20.00;95.00
16172;DHT22;8192;53.596;10.166;2022-07-23T10:04:10;19.50;96.50
16172;DHT22;8192;53.596;10.166;2022-07-23T10:06:37;18.90;99.90
16172;DHT22;8192;53.596;10.166;2022-07-23T10:09:05;18.80;99.90
16172;DHT22;8192;53.596;10.166;2022-07-23T10:11:33;19.10;99.90
16172;DHT22;8192;53.596;10.166;2022-07-23T10:14:04;19.40;99.90
16172;DHT22;8192;53.596;10.166;2022-07-23T10:16:31;19.60;99.20
16172;DHT22;8192;53.596;10.166;2022-07-23T10:18:58;19.20;99.90
16172;DHT22;8192;53.596;10.166;2022-07-23T10:21:27;19.00;99.90
16172;DHT22;8192;53.596;10.166;2022-07-23T10:24:10;18.70;99.90
16172;DHT22;8192;53.596;10.166;2022-07-23T10:26:42;18.40;99.90
16172;DHT22;8192;53.596;10.166;2022-07-23T10:29:13;18.20;99.90
16172;DHT22;8192;53.596;10.166;2022-07-23T10:31:47;18.30;99.90
16172;DHT22;8192;53.596;10.166;2022-07-23T10:34:18;18.30;99.90
16172;DHT22;8192;53.596;10.166;2022-07-23T10:36:47;18.40;99.90
16172;DHT22;8192;53.596;10.166;2022-07-23T10:39:17;18.40;99.90
16172;DHT22;8192;53.596;10.166;2022-07-23T10:41:50;18.30;99.90
16172;DHT22;8192;53.596;10.166;2022-07-23T10:44:18;18.60;99.90
16172;DHT22;8192;53.596;10.166;2022-07-23T10:46:58;19.20;99.90
16172;DHT22;8192;53.596;10.166;2022-07-23T10:49:45;20.10;99.90
16172;DHT22;8192;53.596;10.166;2022-07-23T10:52:24;20.50;95.50
16172;DHT22;8192;53.596;10.166;2022-07-23T10:54:52;20.90;93.90
16172;DHT22;8192;53.596;10.166;2022-07-23T10:57:20;20.90;90.50
16172;DHT22;8192;53.596;10.166;2022-07-23T11:02:36;20.60;93.40
16172;DHT22;8192;53.596;10.166;2022-07-23T11:05:03;20.00;83.70
16172;DHT22;8192;53.596;10.166;2022-07-23T11:07:30;19.80;88.20
16172;DHT22;8192;53.596;10.166;2022-07-23T11:09:57;19.70;90.90
16172;DHT22;8192;53.596;10.166;2022-07-23T11:12:33;19.90;91.50
16172;DHT22;8192;53.596;10.166;2022-07-23T11:15:00;19.80;94.60
16172;DHT22;8192;53.596;10.166;2022-07-23T11:17:27;19.90;95.30
16172;DHT22;8192;53.596;10.166;2022-07-23T11:20:13;20.00;97.20
16172;DHT22;8192;53.596;10.166;2022-07-23T11:22:46;19.90;95.10
16172;DHT22;8192;53.596;10.166;2022-07-23T11:25:14;19.80;97.30
16172;DHT22;8192;53.596;10.166;2022-07-23T11:27:56;19.60;97.50
16172;DHT22;8192;53.596;10.166;2022-07-23T11:30:38;19.10;99.90
16172;DHT22;8192;53.596;10.166;2022-07-23T11:33:16;18.70;99.90
16172;DHT22;8192;53.596;10.166;2022-07-23T11:35:44;18.90;99.90
16172;DHT22;8192;53.596;10.166;2022-07-23T11:38:12;19.10;99.90
16172;DHT22;8192;53.596;10.166;2022-07-23T11:40:40;19.20;99.90
16172;DHT22;8192;53.596;10.166;2022-07-23T11:43:08;19.40;99.90
16172;DHT22;8192;53.596;10.166;2022-07-23T11:45:36;20.00;96.90
16172;DHT22;8192;53.596;10.166;2022-07-23T11:48:04;20.20;92.70
16172;DHT22;8192;53.596;10.166;2022-07-23T11:50:31;20.30;92.10
16172;DHT22;8192;53.596;10.166;2022-07-23T11:52:58;20.60;93.60
16172;DHT22;8192;53.596;10.166;2022-07-23T11:55:25;20.90;90.90
16172;DHT22;8192;53.596;10.166;2022-07-23T11:57:55;21.20;90.70
16172;DHT22;8192;53.596;10.166;2022-07-23T12:00:23;21.20;80.20
16172;DHT22;8192;53.596;10.166;2022-07-23T12:02:51;21.10;79.20
16172;DHT22;8192;53.596;10.166;2022-07-23T12:05:19;21.20;77.30
16172;DHT22;8192;53.596;10.166;2022-07-23T12:07:46;21.20;82.40
16172;DHT22;8192;53.596;10.166;2022-07-23T12:10:15;21.00;81.10
16172;DHT22;8192;53.596;10.166;2022-07-23T12:12:44;21.00;80.60
16172;DHT22;8192;53.596;10.166;2022-07-23T12:15:12;21.00;84.70
16172;DHT22;8192;53.596;10.166;2022-07-23T12:17:40;20.70;76.50
16172;DHT22;8192;53.596;10.166;2022-07-23T12:20:08;20.70;76.00
16172;DHT22;8192;53.596;10.166;2022-07-23T12:22:36;20.90;79.10
16172;DHT22;8192;53.596;10.166;2022-07-23T12:25:04;21.00;70.40
16172;DHT22;8192;53.596;10.166;2022-07-23T12:27:32;21.20;72.00
16172;DHT22;8192;53.596;10.166;2022-07-23T12:29:59;21.20;74.50
16172;DHT22;8192;53.596;10.166;2022-07-23T12:32:26;21.20;78.50
16172;DHT22;8192;53.596;10.166;2022-07-23T12:35:05;20.90;71.30
16172;DHT22;8192;53.596;10.166;2022-07-23T12:37:33;20.50;76.20
16172;DHT22;8192;53.596;10.166;2022-07-23T12:40:19;20.70;74.10
16172;DHT22;8192;53.596;10.166;2022-07-23T12:42:47;20.70;71.20
16172;DHT22;8192;53.596;10.166;2022-07-23T12:45:16;20.40;70.40
16172;DHT22;8192;53.596;10.166;2022-07-23T12:47:53;20.40;71.90
16172;DHT22;8192;53.596;10.166;2022-07-23T12:50:38;20.90;69.90
16172;DHT22;8192;53.596;10.166;2022-07-23T12:53:06;21.00;69.30
16172;DHT22;8192;53.596;10.166;2022-07-23T12:55:33;21.30;69.00
16172;DHT22;8192;53.596;10.166;2022-07-23T12:58:03;21.20;63.20
16172;DHT22;8192;53.596;10.166;2022-07-23T13:00:31;21.30;64.30
16172;DHT22;8192;53.596;10.166;2022-07-23T13:02:58;21.40;62.80
16172;DHT22;8192;53.596;10.166;2022-07-23T13:05:24;21.10;62.50
16172;DHT22;8192;53.596;10.166;2022-07-23T13:07:53;21.20;59.20
16172;DHT22;8192;53.596;10.166;2022-07-23T13:10:19;21.20;58.20
16172;DHT22;8192;53.596;10.166;2022-07-23T13:12:46;21.00;58.70
16172;DHT22;8192;53.596;10.166;2022-07-23T13:15:13;20.60;57.50
16172;DHT22;8192;53.596;10.166;2022-07-23T13:17:39;20.80;60.40
16172;DHT22;8192;53.596;10.166;2022-07-23T13:20:10;21.30;65.70
16172;DHT22;8192;53.596;10.166;2022-07-23T13:22:37;21.80;57.30
16172;DHT22;8192;53.596;10.166;2022-07-23T13:25:06;21.60;55.20
16172;DHT22;8192;53.596;10.166;2022-07-23T13:27:33;21.70;54.40
16172;DHT22;8192;53.596;10.166;2022-07-23T13:29:59;21.70;56.50
16172;DHT22;8192;53.596;10.166;2022-07-23T13:32:26;21.50;52.90
16172;DHT22;8192;53.596;10.166;2022-07-23T13:34:53;21.30;55.20
16172;DHT22;8192;53.596;10.166;2022-07-23T13:37:23;21.20;54.10
16172;DHT22;8192;53.596;10.166;2022-07-23T13:39:49;21.10;56.50
16172;DHT22;8192;53.596;10.166;2022-07-23T13:42:18;20.80;54.30
16172;DHT22;8192;53.596;10.166;2022-07-23T13:44:45;20.70;56.30
16172;DHT22;8192;53.596;10.166;2022-07-23T13:47:12;20.70;56.00
16172;DHT22;8192;53.596;10.166;2022-07-23T13:49:39;20.50;55.20
16172;DHT22;8192;53.596;10.166;2022-07-23T13:52:06;20.20;55.60
16172;DHT22;8192;53.596;10.166;2022-07-23T13:54:32;20.10;56.10
16172;DHT22;8192;53.596;10.166;2022-07-23T13:56:59;20.00;59.80
16172;DHT22;8192;53.596;10.166;2022-07-23T13:59:27;20.30;61.20
16172;DHT22;8192;53.596;10.166;2022-07-23T14:01:54;20.50;56.40
16172;DHT22;8192;53.596;10.166;2022-07-23T14:04:21;20.50;56.40
16172;DHT22;8192;53.596;10.166;2022-07-23T14:06:48;20.10;58.30
16172;DHT22;8192;53.596;10.166;2022-07-23T14:09:15;20.10;63.50
16172;DHT22;8192;53.596;10.166;2022-07-23T14:11:42;20.30;61.50
16172;DHT22;8192;53.596;10.166;2022-07-23T14:14:09;20.50;58.00
16172;DHT22;8192;53.596;10.166;2022-07-23T14:16:37;20.50;57.50
16172;DHT22;8192;53.596;10.166;2022-07-23T14:19:04;20.60;55.70
16172;DHT22;8192;53.596;10.166;2022-07-23T14:21:30;20.80;55.50
16172;DHT22;8192;53.596;10.166;2022-07-23T14:23:57;20.60;55.70
16172;DHT22;8192;53.596;10.166;2022-07-23T14:26:24;20.90;56.40
16172;DHT22;8192;53.596;10.166;2022-07-23T14:28:51;20.60;56.30
16172;DHT22;8192;53.596;10.166;2022-07-23T14:31:18;20.40;58.90
16172;DHT22;8192;53.596;10.166;2022-07-23T14:33:46;20.30;59.60
16172;DHT22;8192;53.596;10.166;2022-07-23T14:36:12;20.60;57.60
16172;DHT22;8192;53.596;10.166;2022-07-23T14:38:39;20.70;57.80
16172;DHT22;8192;53.596;10.166;2022-07-23T14:41:06;21.00;56.10
16172;DHT22;8192;53.596;10.166;2022-07-23T14:43:33;20.90;53.10
16172;DHT22;8192;53.596;10.166;2022-07-23T14:45:59;20.90;52.00
16172;DHT22;8192;53.596;10.166;2022-07-23T14:48:26;20.90;53.80
16172;DHT22;8192;53.596;10.166;2022-07-23T14:50:55;21.10;52.30
16172;DHT22;8192;53.596;10.166;2022-07-23T14:53:22;20.80;51.80
16172;DHT22;8192;53.596;10.166;2022-07-23T14:55:48;20.90;54.50
16172;DHT22;8192;53.596;10.166;2022-07-23T14:58:15;20.80;51.20
16172;DHT22;8192;53.596;10.166;2022-07-23T15:00:43;20.60;53.40
16172;DHT22;8192;53.596;10.166;2022-07-23T15:03:09;20.80;52.70
16172;DHT22;8192;53.596;10.166;2022-07-23T15:05:36;20.50;50.70
16172;DHT22;8192;53.596;10.166;2022-07-23T15:08:04;20.60;51.40
16172;DHT22;8192;53.596;10.166;2022-07-23T15:10:31;20.40;50.40
16172;DHT22;8192;53.596;10.166;2022-07-23T15:12:58;20.20;50.80
16172;DHT22;8192;53.596;10.166;2022-07-23T15:15:25;20.20;52.90
16172;DHT22;8192;53.596;10.166;2022-07-23T15:17:52;20.20;51.90
16172;DHT22;8192;53.596;10.166;2022-07-23T15:20:18;19.90;52.40
16172;DHT22;8192;53.596;10.166;2022-07-23T15:22:45;19.80;54.20
16172;DHT22;8192;53.596;10.166;2022-07-23T15:25:14;20.00;53.40
16172;DHT22;8192;53.596;10.166;2022-07-23T15:27:41;19.90;53.20
16172;DHT22;8192;53.596;10.166;2022-07-23T15:30:08;20.00;53.50
16172;DHT22;8192;53.596;10.166;2022-07-23T15:32:35;20.00;55.10
16172;DHT22;8192;53.596;10.166;2022-07-23T15:35:03;20.30;51.80
16172;DHT22;8192;53.596;10.166;2022-07-23T15:37:32;20.30;51.50
16172;DHT22;8192;53.596;10.166;2022-07-23T15:39:59;20.00;52.30
16172;DHT22;8192;53.596;10.166;2022-07-23T15:42:29;19.70;52.10
16172;DHT22;8192;53.596;10.166;2022-07-23T15:44:56;19.60;55.60